sensor_id;sensor_type;location;lat;lon;timestamp;temperature;humidity
23471;DHT22;11908;50.806;4.424;2024-01-27T00:01:17;3.40;99.90
23471;DHT22;11908;50.806;4.424;2024-01-27T00:03:43;3.40;99.90
23471;DHT22;11908;50.806;4.424;2024-01-27T00:06:08;3.50;99.90
23471;DHT22;11908;50.806;4.424;2024-01-27T00:08:34;3.60;99.90
23471;DHT22;11908;50.806;4.424;2024-01-27T00:10:59;3.60;99.90
23471;DHT22;11908;50.806;4.424;2024-01-27T00:13:25;3.70;99.90
23471;DHT22;11908;50.806;4.424;2024-01-27T00:15:51;3.60;99.90
23471;DHT22;11908;50.806;4.424;2024-01-27T00:18:17;3.50;99.90
23471;DHT22;11908;50.806;4.424;2024-01-27T00:20:43;3.50;99.90
23471;DHT22;11908;50.806;4.424;2024-01-27T00:23:09;3.40;99.90
23471;DHT22;11908;50.806;4.424;2024-01-27T00:25:34;3.40;99.90
23471;DHT22;11908;50.806;4.424;2024-01-27T00:28:00;3.30;99.90
23471;DHT22;11908;50.806;4.424;2024-01-27T00:30:26;3.30;99.90
23471;DHT22;11908;50.806;4.424;2024-01-27T00:32:51;3.40;99.90
23471;DHT22;11908;50.806;4.424;2024-01-27T00:35:17;3.40;99.90
23471;DHT22;11908;50.806;4.424;2024-01-27T00:37:43;3.50;99.90
23471;DHT22;11908;50.806;4.424;2024-01-27T00:40:10;3.50;99.90
23471;DHT22;11908;50.806;4.424;2024-01-27T00:42:36;3.30;99.90
23471;DHT22;11908;50.806;4.424;2024-01-27T00:45:01;3.30;99.90
23471;DHT22;11908;50.806;4.424;2024-01-27T00:47:28;3.40;99.90
23471;DHT22;11908;50.806;4.424;2024-01-27T00:49:54;3.40;99.90
23471;DHT22;11908;50.806;4.424;2024-01-27T00:52:20;3.40;99.90
23471;DHT22;11908;50.806;4.424;2024-01-27T00:54:45;3.40;99.90
23471;DHT22;11908;50.806;4.424;2024-01-27T00:57:11;3.20;99.90
23471;DHT22;11908;50.806;4.424;2024-01-27T00:59:37;3.20;99.90
23471;DHT22;11908;50.806;4.424;2024-01-27T01:02:03;3.10;99.90
23471;DHT22;11908;50.806;4.424;2024-01-27T01:04:29;3.20;99.90
23471;DHT22;11908;50.806;4.424;2024-01-27T01:06:55;3.30;99.90
23471;DHT22;11908;50.806;4.424;2024-01-27T01:09:20;3.40;99.90
23471;DHT22;11908;50.806;4.424;2024-01-27T01:11:46;3.40;99.90
23471;DHT22;11908;50.806;4.424;2024-01-27T01:14:12;3.40;99.90
23471;DHT22;11908;50.806;4.424;2024-01-27T01:16:37;3.30;99.90
23471;DHT22;11908;50.806;4.424;2024-01-27T01:19:03;3.20;99.90
23471;DHT22;11908;50.806;4.424;2024-01-27T01:21:29;3.30;99.90
23471;DHT22;11908;50.806;4.424;2024-01-27T01:23:55;3.30;99.90
23471;DHT22;11908;50.806;4.424;2024-01-27T01:26:20;3.30;99.90
23471;DHT22;11908;50.806;4.424;2024-01-27T01:28:46;3.30;99.90
23471;DHT22;11908;50.806;4.424;2024-01-27T01:31:12;3.30;99.90
23471;DHT22;11908;50.806;4.424;2024-01-27T01:33:37;3.30;99.90
23471;DHT22;11908;50.806;4.424;2024-01-27T01:36:03;3.20;99.90
23471;DHT22;11908;50.806;4.424;2024-01-27T01:38:29;3.00;99.90
23471;DHT22;11908;50.806;4.424;2024-01-27T01:40:55;3.10;99.90
23471;DHT22;11908;50.806;4.424;2024-01-27T01:43:21;3.20;99.90
23471;DHT22;11908;50.806;4.424;2024-01-27T01:45:47;3.20;99.90
23471;DHT22;11908;50.806;4.424;2024-01-27T01:48:12;3.20;99.90
23471;DHT22;11908;50.806;4.424;2024-01-27T01:50:38;3.20;99.90
23471;DHT22;11908;50.806;4.424;2024-01-27T01:53:04;3.10;99.90
23471;DHT22;11908;50.806;4.424;2024-01-27T01:55:31;3.10;99.90
23471;DHT22;11908;50.806;4.424;2024-01-27T01:57:57;3.10;99.90
23471;DHT22;11908;50.806;4.424;2024-01-27T02:00:22;3.00;99.90
23471;DHT22;11908;50.806;4.424;2024-01-27T02:02:48;3.00;99.90
23471;DHT22;11908;50.806;4.424;2024-01-27T02:05:14;3.10;99.90
23471;DHT22;11908;50.806;4.424;2024-01-27T02:07:40;3.10;99.90
23471;DHT22;11908;50.806;4.424;2024-01-27T02:10:15;3.10;99.90
23471;DHT22;11908;50.806;4.424;2024-01-27T02:12:42;3.00;99.90
23471;DHT22;11908;50.806;4.424;2024-01-27T02:15:12;2.90;99.90
23471;DHT22;11908;50.806;4.424;2024-01-27T02:17:40;2.80;99.90
23471;DHT22;11908;50.806;4.424;2024-01-27T02:20:07;2.80;99.90
23471;DHT22;11908;50.806;4.424;2024-01-27T02:22:34;2.60;99.90
23471;DHT22;11908;50.806;4.424;2024-01-27T02:25:00;2.60;99.90
23471;DHT22;11908;50.806;4.424;2024-01-27T02:27:26;2.60;99.90
23471;DHT22;11908;50.806;4.424;2024-01-27T02:29:52;2.70;99.90
23471;DHT22;11908;50.806;4.424;2024-01-27T02:32:18;2.80;99.90
23471;DHT22;11908;50.806;4.424;2024-01-27T02:34:43;2.80;99.90
23471;DHT22;11908;50.806;4.424;2024-01-27T02:37:09;2.80;99.90
23471;DHT22;11908;50.806;4.424;2024-01-27T02:39:35;2.80;99.90
23471;DHT22;11908;50.806;4.424;2024-01-27T02:42:02;2.80;99.90
23471;DHT22;11908;50.806;4.424;2024-01-27T02:44:27;2.80;99.90
23471;DHT22;11908;50.806;4.424;2024-01-27T02:46:53;2.80;99.90
23471;DHT22;11908;50.806;4.424;2024-01-27T02:49:19;2.70;99.90
23471;DHT22;11908;50.806;4.424;2024-01-27T02:51:44;2.70;99.90
23471;DHT22;11908;50.806;4.424;2024-01-27T02:54:10;2.70;99.90
23471;DHT22;11908;50.806;4.424;2024-01-27T02:56:36;2.60;99.90
23471;DHT22;11908;50.806;4.424;2024-01-27T02:59:02;2.50;99.90
23471;DHT22;11908;50.806;4.424;2024-01-27T03:01:27;2.40;99.90
23471;DHT22;11908;50.806;4.424;2024-01-27T03:03:53;2.40;99.90
23471;DHT22;11908;50.806;4.424;2024-01-27T03:06:19;2.50;99.90
23471;DHT22;11908;50.806;4.424;2024-01-27T03:08:45;2.50;99.90
23471;DHT22;11908;50.806;4.424;2024-01-27T03:11:10;2.60;99.90
23471;DHT22;11908;50.806;4.424;2024-01-27T03:13:36;2.60;99.90
23471;DHT22;11908;50.806;4.424;2024-01-27T03:16:02;2.70;99.90
23471;DHT22;11908;50.806;4.424;2024-01-27T03:18:28;2.70;99.90
23471;DHT22;11908;50.806;4.424;2024-01-27T03:20:53;2.70;99.90
23471;DHT22;11908;50.806;4.424;2024-01-27T03:23:19;2.80;99.90
23471;DHT22;11908;50.806;4.424;2024-01-27T03:25:45;2.80;99.90
23471;DHT22;11908;50.806;4.424;2024-01-27T03:28:11;2.70;99.90
23471;DHT22;11908;50.806;4.424;2024-01-27T03:30:37;2.70;99.90
23471;DHT22;11908;50.806;4.424;2024-01-27T03:33:03;2.70;99.90
23471;DHT22;11908;50.806;4.424;2024-01-27T03:35:28;2.70;99.90
23471;DHT22;11908;50.806;4.424;2024-01-27T03:37:54;2.70;99.90
23471;DHT22;11908;50.806;4.424;2024-01-27T03:40:20;2.60;99.90
23471;DHT22;11908;50.806;4.424;2024-01-27T03:42:45;2.60;99.90
23471;DHT22;11908;50.806;4.424;2024-01-27T03:45:11;2.70;99.90
23471;DHT22;11908;50.806;4.424;2024-01-27T03:47:37;2.60;99.90
23471;DHT22;11908;50.806;4.424;2024-01-27T03:50:03;2.50;99.90
23471;DHT22;11908;50.806;4.424;2024-01-27T03:52:28;2.40;99.90
23471;DHT22;11908;50.806;4.424;2024-01-27T03:54:54;2.40;99.90
23471;DHT22;11908;50.806;4.424;2024-01-27T03:57:20;2.40;99.90
23471;DHT22;11908;50.806;4.424;2024-01-27T03:59:46;2.40;99.90
23471;DHT22;11908;50.806;4.424;2024-01-27T04:02:12;2.40;99.90
23471;DHT22;11908;50.806;4.424;2024-01-27T04:04:37;2.30;99.90
23471;DHT22;11908;50.806;4.424;2024-01-27T04:07:03;2.20;99.90
23471;DHT22;11908;50.806;4.424;2024-01-27T04:09:29;2.10;99.90
23471;DHT22;11908;50.806;4.424;2024-01-27T04:11:55;2.10;99.90
23471;DHT22;11908;50.806;4.424;2024-01-27T04:14:20;2.20;99.90
23471;DHT22;11908;50.806;4.424;2024-01-27T04:16:46;2.20;99.90
23471;DHT22;11908;50.806;4.424;2024-01-27T04:19:11;2.30;99.90
23471;DHT22;11908;50.806;4.424;2024-01-27T04:21:37;2.40;99.90
23471;DHT22;11908;50.806;4.424;2024-01-27T04:24:03;2.40;99.90
23471;DHT22;11908;50.806;4.424;2024-01-27T04:26:29;2.30;99.90
23471;DHT22;11908;50.806;4.424;2024-01-27T04:28:54;2.30;99.90
23471;DHT22;11908;50.806;4.424;2024-01-27T04:31:20;2.30;99.90
23471;DHT22;11908;50.806;4.424;2024-01-27T04:33:47;2.30;99.90
23471;DHT22;11908;50.806;4.424;2024-01-27T04:36:13;2.30;99.90
23471;DHT22;11908;50.806;4.424;2024-01-27T04:38:38;2.30;99.90
23471;DHT22;11908;50.806;4.424;2024-01-27T04:41:04;2.10;99.90
23471;DHT22;11908;50.806;4.424;2024-01-27T04:43:30;2.10;99.90
23471;DHT22;11908;50.806;4.424;2024-01-27T04:45:56;2.10;99.90
23471;DHT22;11908;50.806;4.424;2024-01-27T04:48:21;2.20;99.90
23471;DHT22;11908;50.806;4.424;2024-01-27T04:50:47;2.20;99.90
23471;DHT22;11908;50.806;4.424;2024-01-27T04:53:13;2.10;99.90
23471;DHT22;11908;50.806;4.424;2024-01-27T04:55:39;2.20;99.90
23471;DHT22;11908;50.806;4.424;2024-01-27T04:58:06;2.10;99.90
23471;DHT22;11908;50.806;4.424;2024-01-27T05:00:32;2.10;99.90
23471;DHT22;11908;50.806;4.424;2024-01-27T05:02:58;2.10;99.90
23471;DHT22;11908;50.806;4.424;2024-01-27T05:05:28;2.10;99.90
23471;DHT22;11908;50.806;4.424;2024-01-27T05:07:54;2.20;99.90
23471;DHT22;11908;50.806;4.424;2024-01-27T05:10:19;2.20;99.90
23471;DHT22;11908;50.806;4.424;2024-01-27T05:12:47;2.10;99.90
23471;DHT22;11908;50.806;4.424;2024-01-27T05:15:12;2.20;99.90
23471;DHT22;11908;50.806;4.424;2024-01-27T05:17:38;2.20;99.90
23471;DHT22;11908;50.806;4.424;2024-01-27T05:20:08;2.20;99.90
23471;DHT22;11908;50.806;4.424;2024-01-27T05:22:34;2.10;99.90
23471;DHT22;11908;50.806;4.424;2024-01-27T05:25:00;2.10;99.90
23471;DHT22;11908;50.806;4.424;2024-01-27T05:27:26;2.00;99.90
23471;DHT22;11908;50.806;4.424;2024-01-27T05:29:51;2.00;99.90
23471;DHT22;11908;50.806;4.424;2024-01-27T05:32:17;1.90;99.90
23471;DHT22;11908;50.806;4.424;2024-01-27T05:34:44;1.90;99.90
23471;DHT22;11908;50.806;4.424;2024-01-27T05:37:10;2.00;99.90
23471;DHT22;11908;50.806;4.424;2024-01-27T05:39:35;2.00;99.90
23471;DHT22;11908;50.806;4.424;2024-01-27T05:42:01;1.90;99.90
23471;DHT22;11908;50.806;4.424;2024-01-27T05:44:27;1.80;99.90
23471;DHT22;11908;50.806;4.424;2024-01-27T05:46:53;1.80;99.90
23471;DHT22;11908;50.806;4.424;2024-01-27T05:49:19;1.80;99.90
23471;DHT22;11908;50.806;4.424;2024-01-27T05:51:44;1.80;99.90
23471;DHT22;11908;50.806;4.424;2024-01-27T05:54:10;1.80;99.90
23471;DHT22;11908;50.806;4.424;2024-01-27T05:56:40;1.80;99.90
23471;DHT22;11908;50.806;4.424;2024-01-27T05:59:06;1.80;99.90
23471;DHT22;11908;50.806;4.424;2024-01-27T06:01:31;1.70;99.90
23471;DHT22;11908;50.806;4.424;2024-01-27T06:03:57;1.70;99.90
23471;DHT22;11908;50.806;4.424;2024-01-27T06:06:24;1.80;99.90
23471;DHT22;11908;50.806;4.424;2024-01-27T06:08:49;1.90;99.90
23471;DHT22;11908;50.806;4.424;2024-01-27T06:11:26;1.90;99.90
23471;DHT22;11908;50.806;4.424;2024-01-27T06:13:51;2.00;99.90
23471;DHT22;11908;50.806;4.424;2024-01-27T06:16:20;1.90;99.90
23471;DHT22;11908;50.806;4.424;2024-01-27T06:18:46;2.00;99.90
23471;DHT22;11908;50.806;4.424;2024-01-27T06:21:12;2.00;99.90
23471;DHT22;11908;50.806;4.424;2024-01-27T06:23:37;2.00;99.90
23471;DHT22;11908;50.806;4.424;2024-01-27T06:26:07;2.00;99.90
23471;DHT22;11908;50.806;4.424;2024-01-27T06:28:32;2.00;99.90
23471;DHT22;11908;50.806;4.424;2024-01-27T06:31:00;2.00;99.90
23471;DHT22;11908;50.806;4.424;2024-01-27T06:33:26;2.00;99.90
23471;DHT22;11908;50.806;4.424;2024-01-27T06:35:51;2.10;99.90
23471;DHT22;11908;50.806;4.424;2024-01-27T06:38:17;2.10;99.90
23471;DHT22;11908;50.806;4.424;2024-01-27T06:40:42;2.10;99.90
23471;DHT22;11908;50.806;4.424;2024-01-27T06:43:12;2.00;99.90
23471;DHT22;11908;50.806;4.424;2024-01-27T06:45:38;2.00;99.90
23471;DHT22;11908;50.806;4.424;2024-01-27T06:48:04;2.00;99.90
23471;DHT22;11908;50.806;4.424;2024-01-27T06:50:30;2.00;99.90
23471;DHT22;11908;50.806;4.424;2024-01-27T06:52:56;2.00;99.90
23471;DHT22;11908;50.806;4.424;2024-01-27T06:55:21;2.00;99.90
23471;DHT22;11908;50.806;4.424;2024-01-27T06:57:47;1.90;99.90
23471;DHT22;11908;50.806;4.424;2024-01-27T07:00:13;2.00;99.90
23471;DHT22;11908;50.806;4.424;2024-01-27T07:02:40;1.80;99.90
23471;DHT22;11908;50.806;4.424;2024-01-27T07:05:07;1.80;99.90
23471;DHT22;11908;50.806;4.424;2024-01-27T07:07:33;1.90;99.90
23471;DHT22;11908;50.806;4.424;2024-01-27T07:09:59;1.80;99.90
23471;DHT22;11908;50.806;4.424;2024-01-27T07:12:25;1.80;99.90
23471;DHT22;11908;50.806;4.424;2024-01-27T07:14:51;1.80;99.90
23471;DHT22;11908;50.806;4.424;2024-01-27T07:17:17;1.80;99.90
23471;DHT22;11908;50.806;4.424;2024-01-27T07:19:43;1.80;99.90
23471;DHT22;11908;50.806;4.424;2024-01-27T07:22:09;1.80;99.90
23471;DHT22;11908;50.806;4.424;2024-01-27T07:24:35;1.90;99.90
23471;DHT22;11908;50.806;4.424;2024-01-27T07:27:01;1.80;99.90
23471;DHT22;11908;50.806;4.424;2024-01-27T07:29:27;1.80;99.90
23471;DHT22;11908;50.806;4.424;2024-01-27T07:31:53;1.90;99.90
23471;DHT22;11908;50.806;4.424;2024-01-27T07:34:19;1.90;99.90
23471;DHT22;11908;50.806;4.424;2024-01-27T07:36:45;2.00;99.90
23471;DHT22;11908;50.806;4.424;2024-01-27T07:39:11;2.00;99.90
23471;DHT22;11908;50.806;4.424;2024-01-27T07:41:36;2.10;99.90
23471;DHT22;11908;50.806;4.424;2024-01-27T07:44:13;2.30;99.90
23471;DHT22;11908;50.806;4.424;2024-01-27T07:46:41;2.20;99.90
23471;DHT22;11908;50.806;4.424;2024-01-27T07:49:07;2.30;99.90
23471;DHT22;11908;50.806;4.424;2024-01-27T07:51:33;2.30;99.90
23471;DHT22;11908;50.806;4.424;2024-01-27T07:54:00;2.40;99.90
23471;DHT22;11908;50.806;4.424;2024-01-27T07:56:26;2.50;99.90
23471;DHT22;11908;50.806;4.424;2024-01-27T07:58:52;2.50;99.90
23471;DHT22;11908;50.806;4.424;2024-01-27T08:01:18;2.50;99.90
23471;DHT22;11908;50.806;4.424;2024-01-27T08:03:44;2.50;99.90
23471;DHT22;11908;50.806;4.424;2024-01-27T08:06:28;2.50;99.90
23471;DHT22;11908;50.806;4.424;2024-01-27T08:08:54;2.50;99.90
23471;DHT22;11908;50.806;4.424;2024-01-27T08:11:20;2.60;99.90
23471;DHT22;11908;50.806;4.424;2024-01-27T08:13:46;2.80;99.90
23471;DHT22;11908;50.806;4.424;2024-01-27T08:16:12;3.00;99.90
23471;DHT22;11908;50.806;4.424;2024-01-27T08:18:39;3.00;99.90
23471;DHT22;11908;50.806;4.424;2024-01-27T08:21:08;3.20;99.90
23471;DHT22;11908;50.806;4.424;2024-01-27T08:23:33;3.30;99.90
23471;DHT22;11908;50.806;4.424;2024-01-27T08:25:59;3.40;99.90
23471;DHT22;11908;50.806;4.424;2024-01-27T08:28:25;3.50;99.90
23471;DHT22;11908;50.806;4.424;2024-01-27T08:30:51;3.70;99.90
23471;DHT22;11908;50.806;4.424;2024-01-27T08:33:16;3.90;99.90
23471;DHT22;11908;50.806;4.424;2024-01-27T08:35:42;4.00;99.90
23471;DHT22;11908;50.806;4.424;2024-01-27T08:38:08;4.20;99.90
23471;DHT22;11908;50.806;4.424;2024-01-27T08:40:35;4.60;99.90
23471;DHT22;11908;50.806;4.424;2024-01-27T08:43:01;4.80;99.90
23471;DHT22;11908;50.806;4.424;2024-01-27T08:45:27;4.90;99.90
23471;DHT22;11908;50.806;4.424;2024-01-27T08:47:53;5.10;99.90
23471;DHT22;11908;50.806;4.424;2024-01-27T08:50:18;5.00;99.90
23471;DHT22;11908;50.806;4.424;2024-01-27T08:52:44;5.20;99.90
23471;DHT22;11908;50.806;4.424;2024-01-27T08:55:11;5.20;99.90
23471;DHT22;11908;50.806;4.424;2024-01-27T08:57:37;5.30;99.90
23471;DHT22;11908;50.806;4.424;2024-01-27T09:00:03;5.40;99.90
23471;DHT22;11908;50.806;4.424;2024-01-27T09:02:29;5.40;99.90
23471;DHT22;11908;50.806;4.424;2024-01-27T09:04:55;5.60;99.90
23471;DHT22;11908;50.806;4.424;2024-01-27T09:07:21;5.80;99.90
23471;DHT22;11908;50.806;4.424;2024-01-27T09:09:47;6.00;99.90
23471;DHT22;11908;50.806;4.424;2024-01-27T09:12:13;6.00;99.90
23471;DHT22;11908;50.806;4.424;2024-01-27T09:14:38;6.00;99.90
23471;DHT22;11908;50.806;4.424;2024-01-27T09:17:04;6.10;99.90
23471;DHT22;11908;50.806;4.424;2024-01-27T09:19:30;6.30;99.90
23471;DHT22;11908;50.806;4.424;2024-01-27T09:21:56;6.40;99.90
23471;DHT22;11908;50.806;4.424;2024-01-27T09:24:21;6.40;99.90
23471;DHT22;11908;50.806;4.424;2024-01-27T09:26:47;6.60;99.90
23471;DHT22;11908;50.806;4.424;2024-01-27T09:29:12;6.70;99.90
23471;DHT22;11908;50.806;4.424;2024-01-27T09:31:38;6.70;99.90
23471;DHT22;11908;50.806;4.424;2024-01-27T09:34:04;6.80;99.90
23471;DHT22;11908;50.806;4.424;2024-01-27T09:36:29;6.90;99.90
23471;DHT22;11908;50.806;4.424;2024-01-27T09:38:56;7.20;99.90
23471;DHT22;11908;50.806;4.424;2024-01-27T09:41:22;7.30;99.90
23471;DHT22;11908;50.806;4.424;2024-01-27T09:43:47;7.30;99.90
23471;DHT22;11908;50.806;4.424;2024-01-27T09:46:16;7.30;99.90
23471;DHT22;11908;50.806;4.424;2024-01-27T09:48:42;7.20;99.90
23471;DHT22;11908;50.806;4.424;2024-01-27T09:51:09;7.60;99.90
23471;DHT22;11908;50.806;4.424;2024-01-27T09:53:36;8.10;99.90
23471;DHT22;11908;50.806;4.424;2024-01-27T09:56:02;8.20;99.90
23471;DHT22;11908;50.806;4.424;2024-01-27T09:58:30;8.20;99.90
23471;DHT22;11908;50.806;4.424;2024-01-27T10:01:00;8.30;99.90
23471;DHT22;11908;50.806;4.424;2024-01-27T10:03:27;8.70;99.90
23471;DHT22;11908;50.806;4.424;2024-01-27T10:05:54;9.10;99.90
23471;DHT22;11908;50.806;4.424;2024-01-27T10:08:23;9.20;99.90
23471;DHT22;11908;50.806;4.424;2024-01-27T10:10:58;9.30;99.90
23471;DHT22;11908;50.806;4.424;2024-01-27T10:13:25;9.00;99.90
23471;DHT22;11908;50.806;4.424;2024-01-27T10:16:03;9.10;99.90
23471;DHT22;11908;50.806;4.424;2024-01-27T10:18:30;8.80;99.90
23471;DHT22;11908;50.806;4.424;2024-01-27T10:20:56;9.00;99.90
23471;DHT22;11908;50.806;4.424;2024-01-27T10:23:21;9.50;99.90
23471;DHT22;11908;50.806;4.424;2024-01-27T10:25:47;9.90;99.90
23471;DHT22;11908;50.806;4.424;2024-01-27T10:28:13;10.00;99.90
23471;DHT22;11908;50.806;4.424;2024-01-27T10:30:38;10.00;99.90
23471;DHT22;11908;50.806;4.424;2024-01-27T10:33:04;10.20;99.90
23471;DHT22;11908;50.806;4.424;2024-01-27T10:35:33;10.00;99.90
23471;DHT22;11908;50.806;4.424;2024-01-27T10:37:58;10.20;99.90
23471;DHT22;11908;50.806;4.424;2024-01-27T10:40:24;9.90;99.90
23471;DHT22;11908;50.806;4.424;2024-01-27T10:45:27;9.40;99.90
23471;DHT22;11908;50.806;4.424;2024-01-27T10:47:54;8.90;99.90
23471;DHT22;11908;50.806;4.424;2024-01-27T10:50:23;8.60;99.90
23471;DHT22;11908;50.806;4.424;2024-01-27T10:52:50;8.80;99.90
23471;DHT22;11908;50.806;4.424;2024-01-27T10:55:17;9.30;99.90
23471;DHT22;11908;50.806;4.424;2024-01-27T10:57:44;9.90;99.90
23471;DHT22;11908;50.806;4.424;2024-01-27T11:00:12;10.60;99.90
23471;DHT22;11908;50.806;4.424;2024-01-27T11:02:40;11.50;99.90
23471;DHT22;11908;50.806;4.424;2024-01-27T11:05:07;12.20;99.90
23471;DHT22;11908;50.806;4.424;2024-01-27T11:07:38;12.70;99.90
23471;DHT22;11908;50.806;4.424;2024-01-27T11:10:05;13.00;99.90
23471;DHT22;11908;50.806;4.424;2024-01-27T11:12:31;13.00;99.90
23471;DHT22;11908;50.806;4.424;2024-01-27T11:14:57;13.70;99.90
23471;DHT22;11908;50.806;4.424;2024-01-27T11:17:25;14.30;99.90
23471;DHT22;11908;50.806;4.424;2024-01-27T11:19:51;15.00;99.90
23471;DHT22;11908;50.806;4.424;2024-01-27T11:22:25;14.60;99.90
23471;DHT22;11908;50.806;4.424;2024-01-27T11:27:31;14.90;99.90
23471;DHT22;11908;50.806;4.424;2024-01-27T11:29:57;15.30;99.90
23471;DHT22;11908;50.806;4.424;2024-01-27T11:32:23;15.70;99.90
23471;DHT22;11908;50.806;4.424;2024-01-27T11:34:49;15.10;99.90
23471;DHT22;11908;50.806;4.424;2024-01-27T11:37:16;15.00;99.90
23471;DHT22;11908;50.806;4.424;2024-01-27T11:39:42;15.10;99.90
23471;DHT22;11908;50.806;4.424;2024-01-27T11:42:08;14.00;99.90
23471;DHT22;11908;50.806;4.424;2024-01-27T11:44:35;13.50;99.90
23471;DHT22;11908;50.806;4.424;2024-01-27T11:47:01;13.40;99.90
23471;DHT22;11908;50.806;4.424;2024-01-27T11:49:27;12.80;99.90
23471;DHT22;11908;50.806;4.424;2024-01-27T11:51:52;12.50;99.90
23471;DHT22;11908;50.806;4.424;2024-01-27T11:54:18;12.30;99.90
23471;DHT22;11908;50.806;4.424;2024-01-27T11:56:44;11.90;99.90
23471;DHT22;11908;50.806;4.424;2024-01-27T11:59:12;11.40;99.90
23471;DHT22;11908;50.806;4.424;2024-01-27T12:01:38;10.90;99.90
23471;DHT22;11908;50.806;4.424;2024-01-27T12:04:04;11.20;99.90
23471;DHT22;11908;50.806;4.424;2024-01-27T12:06:30;11.30;99.90
23471;DHT22;11908;50.806;4.424;2024-01-27T12:08:57;11.80;99.90
23471;DHT22;11908;50.806;4.424;2024-01-27T12:11:26;12.40;99.90
23471;DHT22;11908;50.806;4.424;2024-01-27T12:13:52;12.80;99.90
23471;DHT22;11908;50.806;4.424;2024-01-27T12:16:18;12.50;99.90
23471;DHT22;11908;50.806;4.424;2024-01-27T12:18:47;12.60;99.90
23471;DHT22;11908;50.806;4.424;2024-01-27T12:21:19;12.20;99.90
23471;DHT22;11908;50.806;4.424;2024-01-27T12:23:52;12.00;99.90
23471;DHT22;11908;50.806;4.424;2024-01-27T12:26:20;12.10;99.90
23471;DHT22;11908;50.806;4.424;2024-01-27T12:28:46;12.40;99.90
23471;DHT22;11908;50.806;4.424;2024-01-27T12:31:13;12.10;99.90
23471;DHT22;11908;50.806;4.424;2024-01-27T12:33:40;12.00;99.90
23471;DHT22;11908;50.806;4.424;2024-01-27T12:36:08;12.00;99.90
23471;DHT22;11908;50.806;4.424;2024-01-27T12:38:36;12.20;99.90
23471;DHT22;11908;50.806;4.424;2024-01-27T12:41:01;12.10;99.90
23471;DHT22;11908;50.806;4.424;2024-01-27T12:43:27;12.30;99.90
23471;DHT22;11908;50.806;4.424;2024-01-27T12:45:53;12.30;99.90
23471;DHT22;11908;50.806;4.424;2024-01-27T12:48:18;12.50;99.90
23471;DHT22;11908;50.806;4.424;2024-01-27T12:50:44;12.70;99.90
23471;DHT22;11908;50.806;4.424;2024-01-27T12:53:10;12.30;99.90
23471;DHT22;11908;50.806;4.424;2024-01-27T12:55:36;12.00;99.90
23471;DHT22;11908;50.806;4.424;2024-01-27T12:58:01;11.90;99.90
23471;DHT22;11908;50.806;4.424;2024-01-27T13:00:28;11.50;99.90
23471;DHT22;11908;50.806;4.424;2024-01-27T13:02:53;11.70;99.90
23471;DHT22;11908;50.806;4.424;2024-01-27T13:05:19;11.60;99.90
23471;DHT22;11908;50.806;4.424;2024-01-27T13:07:46;11.60;99.90
23471;DHT22;11908;50.806;4.424;2024-01-27T13:10:11;11.50;99.90
23471;DHT22;11908;50.806;4.424;2024-01-27T13:12:37;11.30;99.90
23471;DHT22;11908;50.806;4.424;2024-01-27T13:15:03;11.10;99.90
23471;DHT22;11908;50.806;4.424;2024-01-27T13:17:29;11.20;99.90
23471;DHT22;11908;50.806;4.424;2024-01-27T13:19:54;11.40;99.90
23471;DHT22;11908;50.806;4.424;2024-01-27T13:22:20;11.30;99.90
23471;DHT22;11908;50.806;4.424;2024-01-27T13:24:49;11.20;99.90
23471;DHT22;11908;50.806;4.424;2024-01-27T13:27:15;11.10;99.90
23471;DHT22;11908;50.806;4.424;2024-01-27T13:29:41;11.00;99.90
23471;DHT22;11908;50.806;4.424;2024-01-27T13:32:06;11.10;99.90
23471;DHT22;11908;50.806;4.424;2024-01-27T13:34:32;11.10;99.90
23471;DHT22;11908;50.806;4.424;2024-01-27T13:36:58;11.10;99.90
23471;DHT22;11908;50.806;4.424;2024-01-27T13:39:25;10.90;99.90
23471;DHT22;11908;50.806;4.424;2024-01-27T13:41:51;10.80;99.90
23471;DHT22;11908;50.806;4.424;2024-01-27T13:44:16;10.80;99.90
23471;DHT22;11908;50.806;4.424;2024-01-27T13:46:42;10.70;99.90
23471;DHT22;11908;50.806;4.424;2024-01-27T13:49:08;10.50;99.90
23471;DHT22;11908;50.806;4.424;2024-01-27T13:51:34;10.60;99.90
23471;DHT22;11908;50.806;4.424;2024-01-27T13:53:59;10.80;99.90
23471;DHT22;11908;50.806;4.424;2024-01-27T13:56:25;10.60;99.90
23471;DHT22;11908;50.806;4.424;2024-01-27T13:58:51;10.50;99.90
23471;DHT22;11908;50.806;4.424;2024-01-27T14:01:17;10.30;99.90
23471;DHT22;11908;50.806;4.424;2024-01-27T14:03:43;10.20;99.90
23471;DHT22;11908;50.806;4.424;2024-01-27T14:06:08;10.10;99.90
23471;DHT22;11908;50.806;4.424;2024-01-27T14:08:38;10.20;99.90
23471;DHT22;11908;50.806;4.424;2024-01-27T14:11:04;10.40;99.90
23471;DHT22;11908;50.806;4.424;2024-01-27T14:13:30;10.40;99.90
23471;DHT22;11908;50.806;4.424;2024-01-27T14:15:56;10.30;99.90
23471;DHT22;11908;50.806;4.424;2024-01-27T14:18:21;10.20;99.90
23471;DHT22;11908;50.806;4.424;2024-01-27T14:20:47;10.20;99.90
23471;DHT22;11908;50.806;4.424;2024-01-27T14:23:14;10.30;99.90
23471;DHT22;11908;50.806;4.424;2024-01-27T14:25:40;10.10;99.90
23471;DHT22;11908;50.806;4.424;2024-01-27T14:28:07;9.90;99.90
23471;DHT22;11908;50.806;4.424;2024-01-27T14:30:33;9.80;99.90
23471;DHT22;11908;50.806;4.424;2024-01-27T14:32:59;9.70;99.90
23471;DHT22;11908;50.806;4.424;2024-01-27T14:35:25;9.60;99.90
23471;DHT22;11908;50.806;4.424;2024-01-27T14:37:52;9.50;99.90
23471;DHT22;11908;50.806;4.424;2024-01-27T14:40:19;9.50;99.90
23471;DHT22;11908;50.806;4.424;2024-01-27T14:42:46;9.40;99.90
23471;DHT22;11908;50.806;4.424;2024-01-27T14:45:12;9.30;99.90
23471;DHT22;11908;50.806;4.424;2024-01-27T14:47:38;9.30;99.90
23471;DHT22;11908;50.806;4.424;2024-01-27T14:50:04;9.20;99.90
23471;DHT22;11908;50.806;4.424;2024-01-27T14:52:31;9.10;99.90
23471;DHT22;11908;50.806;4.424;2024-01-27T14:54:57;9.00;99.90
23471;DHT22;11908;50.806;4.424;2024-01-27T14:57:23;9.00;99.90
23471;DHT22;11908;50.806;4.424;2024-01-27T14:59:49;8.90;99.90
23471;DHT22;11908;50.806;4.424;2024-01-27T15:02:15;8.90;99.90
23471;DHT22;11908;50.806;4.424;2024-01-27T15:04:41;8.90;99.90
23471;DHT22;11908;50.806;4.424;2024-01-27T15:07:08;8.90;99.90
23471;DHT22;11908;50.806;4.424;2024-01-27T15:09:35;9.00;99.90
23471;DHT22;11908;50.806;4.424;2024-01-27T15:12:00;9.10;99.90
23471;DHT22;11908;50.806;4.424;2024-01-27T15:14:26;9.10;99.90
23471;DHT22;11908;50.806;4.424;2024-01-27T15:16:52;9.10;99.90
23471;DHT22;11908;50.806;4.424;2024-01-27T15:19:18;9.00;99.90
23471;DHT22;11908;50.806;4.424;2024-01-27T15:21:44;9.00;99.90
23471;DHT22;11908;50.806;4.424;2024-01-27T15:24:11;9.00;99.90
23471;DHT22;11908;50.806;4.424;2024-01-27T15:26:36;8.90;99.90
23471;DHT22;11908;50.806;4.424;2024-01-27T15:29:02;8.90;99.90
23471;DHT22;11908;50.806;4.424;2024-01-27T15:31:28;8.90;99.90
23471;DHT22;11908;50.806;4.424;2024-01-27T15:33:54;8.90;99.90
23471;DHT22;11908;50.806;4.424;2024-01-27T15:36:20;8.90;99.90
23471;DHT22;11908;50.806;4.424;2024-01-27T15:38:45;8.90;99.90
23471;DHT22;11908;50.806;4.424;2024-01-27T15:41:11;9.00;99.90